Time;durP1;ratioP1;P1;durP2;ratioP2;P2;SDS_P1;SDS_P2;PMS_P1;PMS_P2;Temp;Humidity;BMP_temperature;BMP_pressure;BME280_temperature;BME280_humidity;BME280_pressure;Samples;Min_cycle;Max_cycle;Signal;HPM_P1;HPM_P2
2023/02/06 00:00:17;;;;;;;418.80;24.83;;;;;;;;;;6177291;23;20025;-63
2023/02/06 00:02:45;;;;;;;151.80;12.07;;;;;;;;;;6176923;23;20554;-62
2023/02/06 00:05:12;;;;;;;84.47;11.35;;;;;;;;;;6178071;23;20025;-53
2023/02/06 00:07:45;;;;;;;84.03;10.13;;;;;;;;;;6177989;23;20025;-64
2023/02/06 00:10:13;;;;;;;290.33;17.95;;;;;;;;;;6177890;23;20047;-57
2023/02/06 00:12:46;;;;;;;405.45;20.35;;;;;;;;;;6176965;23;20025;-55
2023/02/06 00:15:14;;;;;;;253.05;15.18;;;;;;;;;;6178317;23;20060;-54
2023/02/06 00:17:41;;;;;;;190.88;12.43;;;;;;;;;;6175126;23;20100;-57
2023/02/06 00:20:14;;;;;;;292.95;19.92;;;;;;;;;;6178800;23;20466;-55
2023/02/06 00:22:42;;;;;;;283.23;15.13;;;;;;;;;;6177306;23;20025;-59
2023/02/06 00:25:15;;;;;;;255.05;14.38;;;;;;;;;;6176436;23;20024;-57
2023/02/06 00:27:43;;;;;;;291.23;16.02;;;;;;;;;;6177697;23;20064;-70
2023/02/06 00:30:10;;;;;;;275.65;13.05;;;;;;;;;;6178330;23;20025;-54
2023/02/06 00:32:43;;;;;;;172.30;11.98;;;;;;;;;;6177372;23;20100;-53
2023/02/06 00:35:11;;;;;;;232.18;11.90;;;;;;;;;;6178973;23;20021;-54
2023/02/06 00:37:38;;;;;;;175.73;11.52;;;;;;;;;;6177148;23;20047;-55
2023/02/06 00:40:11;;;;;;;88.72;9.23;;;;;;;;;;6176918;23;20490;-53
2023/02/06 00:42:39;;;;;;;161.10;10.30;;;;;;;;;;6178230;23;20021;-54
2023/02/06 00:45:12;;;;;;;135.27;10.18;;;;;;;;;;6178968;23;20067;-64
2023/02/06 00:47:40;;;;;;;138.52;11.95;;;;;;;;;;6175770;23;20518;-59
2023/02/06 00:50:07;;;;;;;135.55;10.30;;;;;;;;;;6177182;23;20071;-53
2023/02/06 00:52:40;;;;;;;103.15;8.85;;;;;;;;;;6177681;23;20110;-54
2023/02/06 00:55:07;;;;;;;164.70;10.25;;;;;;;;;;6176216;23;20116;-53
2023/02/06 00:57:48;;;;;;;89.25;7.40;;;;;;;;;;6177481;23;20021;-55
2023/02/06 01:00:22;;;;;;;132.85;9.65;;;;;;;;;;6178477;23;20113;-55
2023/02/06 01:02:56;;;;;;;394.35;19.20;;;;;;;;;;6176670;23;20021;-50
2023/02/06 01:05:24;;;;;;;46.90;6.93;;;;;;;;;;6175558;23;20398;-48
2023/02/06 01:07:51;;;;;;;120.07;7.85;;;;;;;;;;6177578;23;20084;-60
2023/02/06 01:10:24;;;;;;;133.05;10.02;;;;;;;;;;6175697;23;20621;-55
2023/02/06 01:12:51;;;;;;;292.30;15.07;;;;;;;;;;6176785;23;20108;-58
2023/02/06 01:15:25;;;;;;;129.07;9.32;;;;;;;;;;6177632;23;20104;-56
2023/02/06 01:18:00;;;;;;;56.38;6.63;;;;;;;;;;6178027;23;20021;-55
2023/02/06 01:20:34;;;;;;;96.72;10.18;;;;;;;;;;6177119;23;20365;-56
2023/02/06 01:23:01;;;;;;;53.40;7.53;;;;;;;;;;6176720;23;20048;-55
2023/02/06 01:25:28;;;;;;;97.53;7.97;;;;;;;;;;6175790;23;20104;-63
2023/02/06 01:28:03;;;;;;;97.00;8.98;;;;;;;;;;6177320;23;20035;-63
2023/02/06 01:30:30;;;;;;;193.48;12.00;;;;;;;;;;6177556;23;20075;-62
2023/02/06 01:33:03;;;;;;;101.75;7.32;;;;;;;;;;6176791;23;20025;-62
2023/02/06 01:35:31;;;;;;;224.27;12.65;;;;;;;;;;6177368;23;20108;-63
2023/02/06 01:38:04;;;;;;;105.68;9.70;;;;;;;;;;6177636;23;20093;-63
2023/02/06 01:40:37;;;;;;;98.43;7.72;;;;;;;;;;6175444;23;20560;-53
2023/02/06 01:43:05;;;;;;;72.10;6.60;;;;;;;;;;6176591;23;20522;-60
2023/02/06 01:45:41;;;;;;;47.92;6.13;;;;;;;;;;6177330;23;20035;-59
2023/02/06 01:48:10;;;;;;;62.50;7.88;;;;;;;;;;6176874;23;20060;-59
2023/02/06 01:50:38;;;;;;;76.10;6.32;;;;;;;;;;6177118;23;20104;-60
2023/02/06 01:53:14;;;;;;;58.40;6.20;;;;;;;;;;6177016;23;20021;-60
2023/02/06 01:55:42;;;;;;;32.50;5.25;;;;;;;;;;6174537;23;20023;-60
2023/02/06 01:58:25;;;;;;;50.95;5.90;;;;;;;;;;6175753;23;20119;-59
2023/02/06 02:00:59;;;;;;;109.40;8.30;;;;;;;;;;6177865;23;20088;-59
2023/02/06 02:03:35;;;;;;;52.22;5.45;;;;;;;;;;6177892;23;20029;-51
2023/02/06 02:06:10;;;;;;;44.65;5.57;;;;;;;;;;6176680;23;20025;-52
2023/02/06 02:08:38;;;;;;;57.22;5.95;;;;;;;;;;6177052;23;20027;-56
2023/02/06 02:11:06;;;;;;;39.00;5.15;;;;;;;;;;6175604;23;20112;-55
2023/02/06 02:13:40;;;;;;;114.50;8.05;;;;;;;;;;6176117;23;20483;-54
2023/02/06 02:16:17;;;;;;;137.85;9.43;;;;;;;;;;6175658;23;20101;-54
2023/02/06 02:18:58;;;;;;;65.78;6.18;;;;;;;;;;6177154;23;20545;-58
2023/02/06 02:21:40;;;;;;;127.20;9.27;;;;;;;;;;6175242;23;20096;-57
2023/02/06 02:24:13;;;;;;;;;;;;;;;;;;6149762;23;20035;-63
2023/02/06 02:26:40;;;;;;;100.97;12.45;;;;;;;;;;6177384;23;20249;-63
2023/02/06 02:29:33;;;;;;;108.00;7.60;;;;;;;;;;6176557;23;20021;-63
2023/02/06 02:32:19;;;;;;;18.58;5.25;;;;;;;;;;6176329;23;20092;-63
2023/02/06 02:35:02;;;;;;;53.17;5.90;;;;;;;;;;6177374;23;20103;-63
2023/02/06 02:37:29;;;;;;;67.22;6.43;;;;;;;;;;6173835;23;20100;-59
2023/02/06 02:40:02;;;;;;;77.97;7.03;;;;;;;;;;6177250;23;20025;-69
2023/02/06 02:42:42;;;;;;;32.47;5.93;;;;;;;;;;6177464;23;20029;-53
2023/02/06 02:45:23;;;;;;;34.85;6.05;;;;;;;;;;6176267;23;20056;-58
2023/02/06 02:47:56;;;;;;;98.85;9.05;;;;;;;;;;6177229;23;20025;-58
2023/02/06 02:50:31;;;;;;;34.55;5.72;;;;;;;;;;6175787;23;20100;-54
2023/02/06 02:53:00;;;;;;;30.15;6.45;;;;;;;;;;6175525;23;20103;-52
2023/02/06 02:55:34;;;;;;;37.30;6.03;;;;;;;;;;6176380;23;20028;-52
2023/02/06 02:58:21;;;;;;;42.63;6.22;;;;;;;;;;6175958;23;20025;-60
2023/02/06 03:01:04;;;;;;;33.88;6.00;;;;;;;;;;6177093;23;20104;-50
2023/02/06 03:03:31;;;;;;;76.35;7.05;;;;;;;;;;6176151;23;20219;-57
2023/02/06 03:06:12;;;;;;;15.65;5.75;;;;;;;;;;6175823;23;20283;-51
2023/02/06 03:09:11;;;;;;;21.67;6.10;;;;;;;;;;6178171;23;20104;-51
2023/02/06 03:11:49;;;;;;;34.22;6.05;;;;;;;;;;6147192;23;20018;-51
2023/02/06 03:14:28;;;;;;;45.40;6.55;;;;;;;;;;6178408;23;20021;-53
2023/02/06 03:17:04;;;;;;;53.80;6.70;;;;;;;;;;6178528;23;20403;-63
2023/02/06 03:19:41;;;;;;;101.72;8.32;;;;;;;;;;6178164;23;20025;-55
2023/02/06 03:22:09;;;;;;;17.10;5.10;;;;;;;;;;6178697;23;20696;-55
2023/02/06 03:24:43;;;;;;;36.83;6.75;;;;;;;;;;6178241;23;20028;-54
2023/02/06 03:27:11;;;;;;;;;;;;;;;;;;6177937;23;20021;-53
2023/02/06 03:29:46;;;;;;;24.02;6.20;;;;;;;;;;6177186;23;19998;-56
2023/02/06 03:32:25;;;;;;;65.97;7.60;;;;;;;;;;6177987;23;20052;-53
2023/02/06 03:35:04;;;;;;;27.75;6.22;;;;;;;;;;6178369;23;20028;-70
2023/02/06 03:37:32;;;;;;;62.45;6.90;;;;;;;;;;6150955;23;20063;-54
2023/02/06 03:40:06;;;;;;;40.30;6.68;;;;;;;;;;6179180;23;20514;-51
2023/02/06 03:42:36;;;;;;;42.47;7.20;;;;;;;;;;6177181;23;20351;-50
2023/02/06 03:45:15;;;;;;;48.17;7.65;;;;;;;;;;6177793;23;20099;-52
2023/02/06 03:47:48;;;;;;;;;;;;;;;;;;6177973;23;20403;-52
2023/02/06 03:50:16;;;;;;;46.60;6.85;;;;;;;;;;6176815;23;20003;-57
2023/02/06 03:52:51;;;;;;;35.92;6.75;;;;;;;;;;6178162;23;20039;-51
2023/02/06 03:55:22;;;;;;;24.13;6.25;;;;;;;;;;6178822;23;20021;-56
2023/02/06 03:58:12;;;;;;;39.45;6.93;;;;;;;;;;6153041;23;20477;-63
2023/02/06 04:00:47;;;;;;;65.30;7.32;;;;;;;;;;6153303;23;20021;-64
2023/02/06 04:03:22;;;;;;;30.02;6.38;;;;;;;;;;6177016;23;20035;-64
2023/02/06 04:05:49;;;;;;;36.38;6.28;;;;;;;;;;6176752;23;20135;-64
2023/02/06 04:08:16;;;;;;;10.77;5.00;;;;;;;;;;6151214;23;20573;-64
2023/02/06 04:10:49;;;;;;;13.68;4.68;;;;;;;;;;6177636;23;20036;-64
2023/02/06 04:13:17;;;;;;;8.45;4.45;;;;;;;;;;6179295;23;20415;-61
2023/02/06 04:15:50;;;;;;;10.13;4.47;;;;;;;;;;6177393;23;20041;-61
2023/02/06 04:18:18;;;;;;;12.13;4.75;;;;;;;;;;6177185;23;20099;-70
2023/02/06 04:20:45;;;;;;;12.30;5.25;;;;;;;;;;6177822;23;20020;-70
2023/02/06 04:23:19;;;;;;;11.95;4.93;;;;;;;;;;6176548;23;20037;-70
2023/02/06 04:25:46;;;;;;;26.30;6.53;;;;;;;;;;6178224;23;20401;-70
2023/02/06 04:28:21;;;;;;;10.18;5.00;;;;;;;;;;6178339;23;20024;-71
2023/02/06 04:30:48;;;;;;;8.48;4.85;;;;;;;;;;6177159;23;20025;-71
2023/02/06 04:33:15;;;;;;;11.60;5.38;;;;;;;;;;6177966;23;20021;-56
2023/02/06 04:35:48;;;;;;;14.38;5.97;;;;;;;;;;6177532;23;20021;-64
2023/02/06 04:38:16;;;;;;;13.90;6.03;;;;;;;;;;6177383;23;20021;-64
2023/02/06 04:40:50;;;;;;;15.75;6.35;;;;;;;;;;6177773;23;20100;-64
2023/02/06 04:43:17;;;;;;;24.20;6.22;;;;;;;;;;6177632;23;20133;-64
2023/02/06 04:45:44;;;;;;;41.28;6.68;;;;;;;;;;6175598;23;20096;-64
2023/02/06 04:48:18;;;;;;;27.90;6.72;;;;;;;;;;6178079;23;20021;-64
2023/02/06 04:50:45;;;;;;;12.93;5.93;;;;;;;;;;6177058;23;20032;-50
2023/02/06 04:53:18;;;;;;;12.68;5.45;;;;;;;;;;6177948;23;20336;-55
2023/02/06 04:55:46;;;;;;;14.45;5.90;;;;;;;;;;6176434;23;20104;-57
2023/02/06 04:58:13;;;;;;;14.50;5.95;;;;;;;;;;6176263;23;20025;-60
2023/02/06 05:00:46;;;;;;;14.50;5.63;;;;;;;;;;6177564;23;20021;-59
2023/02/06 05:03:13;;;;;;;12.35;5.35;;;;;;;;;;6177493;23;20103;-61
2023/02/06 05:05:47;;;;;;;13.35;5.65;;;;;;;;;;6177204;23;20035;-61
2023/02/06 05:08:15;;;;;;;;;;;;;;;;;;6178308;23;20033;-60
2023/02/06 05:10:42;;;;;;;10.93;4.70;;;;;;;;;;6178282;23;19987;-55
2023/02/06 05:13:15;;;;;;;14.05;5.15;;;;;;;;;;6178418;23;20024;-71
2023/02/06 05:15:43;;;;;;;11.07;5.03;;;;;;;;;;6178036;23;20092;-70
2023/02/06 05:18:10;;;;;;;13.52;5.20;;;;;;;;;;6177255;23;20021;-71
2023/02/06 05:20:43;;;;;;;10.70;5.18;;;;;;;;;;6174414;23;20021;-70
2023/02/06 05:23:11;;;;;;;12.02;5.78;;;;;;;;;;6177434;23;20017;-70
2023/02/06 05:25:44;;;;;;;14.02;5.75;;;;;;;;;;6175086;23;20074;-71
2023/02/06 05:28:12;;;;;;;15.38;6.55;;;;;;;;;;6177738;23;20064;-71
2023/02/06 05:30:39;;;;;;;18.45;7.13;;;;;;;;;;6175861;23;20025;-52
2023/02/06 05:33:13;;;;;;;12.18;5.50;;;;;;;;;;6177169;23;20053;-56
2023/02/06 05:35:40;;;;;;;12.52;5.90;;;;;;;;;;6170607;23;20021;-57
2023/02/06 05:38:13;;;;;;;13.90;6.20;;;;;;;;;;6174018;23;20025;-58
2023/02/06 05:40:41;;;;;;;22.85;6.32;;;;;;;;;;6174451;23;20021;-60
2023/02/06 05:43:08;;;;;;;16.13;6.65;;;;;;;;;;6175280;23;20590;-59
2023/02/06 05:45:41;;;;;;;13.25;5.80;;;;;;;;;;6173925;23;20100;-60
2023/02/06 05:48:09;;;;;;;12.10;5.95;;;;;;;;;;6174648;23;20025;-58
2023/02/06 05:50:43;;;;;;;10.10;5.25;;;;;;;;;;6175136;23;20067;-54
2023/02/06 05:53:10;;;;;;;8.68;4.45;;;;;;;;;;6175775;23;20068;-59
2023/02/06 05:55:37;;;;;;;9.27;4.50;;;;;;;;;;6175467;23;20025;-60
2023/02/06 05:58:23;;;;;;;10.90;4.38;;;;;;;;;;6174748;23;20017;-58
2023/02/06 06:00:57;;;;;;;11.98;4.85;;;;;;;;;;6177074;23;20017;-58
2023/02/06 06:03:32;;;;;;;10.20;4.22;;;;;;;;;;6177021;23;20021;-58
2023/02/06 06:05:59;;;;;;;9.90;4.88;;;;;;;;;;6177565;23;20024;-59
2023/02/06 06:08:26;;;;;;;9.52;4.75;;;;;;;;;;6176763;23;20427;-64
2023/02/06 06:11:01;;;;;;;10.35;4.55;;;;;;;;;;6177626;23;20025;-56
2023/02/06 06:13:29;;;;;;;9.98;4.68;;;;;;;;;;6177076;23;20358;-59
2023/02/06 06:16:03;;;;;;;10.57;4.38;;;;;;;;;;6177071;23;20067;-56
2023/02/06 06:18:30;;;;;;;9.15;4.20;;;;;;;;;;6176049;23;20513;-56
2023/02/06 06:20:57;;;;;;;8.68;4.45;;;;;;;;;;6175929;23;20553;-58
2023/02/06 06:23:31;;;;;;;9.80;4.70;;;;;;;;;;6177281;23;20088;-56
2023/02/06 06:25:58;;;;;;;7.78;4.18;;;;;;;;;;6177859;23;20031;-63
2023/02/06 06:28:33;;;;;;;8.32;4.45;;;;;;;;;;6176854;23;20524;-58
2023/02/06 06:31:02;;;;;;;8.60;4.22;;;;;;;;;;6176206;23;20183;-54
2023/02/06 06:33:36;;;;;;;10.63;4.30;;;;;;;;;;6176992;23;20521;-53
2023/02/06 06:36:03;;;;;;;10.68;5.00;;;;;;;;;;6177727;23;20048;-49
2023/02/06 06:38:30;;;;;;;7.90;4.32;;;;;;;;;;6176405;23;20401;-49
2023/02/06 06:41:04;;;;;;;7.38;4.75;;;;;;;;;;6177702;23;20061;-50
2023/02/06 06:43:31;;;;;;;;;;;;;;;;;;6179921;23;20522;-52
2023/02/06 06:46:01;;;;;;;10.10;5.07;;;;;;;;;;6179334;23;19995;-60
2023/02/06 06:48:36;;;;;;;10.70;4.47;;;;;;;;;;6179158;23;20033;-61
2023/02/06 06:51:04;;;;;;;11.73;4.97;;;;;;;;;;6178672;23;20052;-64
2023/02/06 06:53:38;;;;;;;8.60;4.63;;;;;;;;;;6178708;23;20021;-64
2023/02/06 06:56:07;;;;;;;10.88;5.10;;;;;;;;;;6179221;23;20032;-64
2023/02/06 06:58:34;;;;;;;8.82;4.78;;;;;;;;;;6153032;23;20181;-64
2023/02/06 07:01:14;;;;;;;13.07;5.05;;;;;;;;;;6178389;23;20100;-64
2023/02/06 07:03:48;;;;;;;11.52;5.20;;;;;;;;;;6179155;23;20028;-63
2023/02/06 07:06:23;;;;;;;14.65;5.57;;;;;;;;;;6179160;23;20025;-49
2023/02/06 07:08:56;;;;;;;12.48;5.13;;;;;;;;;;6179097;23;20065;-64
2023/02/06 07:11:30;;;;;;;15.43;6.25;;;;;;;;;;6178216;23;20021;-64
2023/02/06 07:13:58;;;;;;;16.95;5.45;;;;;;;;;;6179186;23;20099;-64
2023/02/06 07:16:25;;;;;;;12.50;5.20;;;;;;;;;;6178951;23;20095;-64
2023/02/06 07:18:59;;;;;;;13.25;6.00;;;;;;;;;;6178965;23;20091;-64
2023/02/06 07:21:33;;;;;;;10.50;5.30;;;;;;;;;;6179003;23;20542;-64
2023/02/06 07:24:04;;;;;;;14.27;6.10;;;;;;;;;;6178517;23;20777;-60
2023/02/06 07:26:31;;;;;;;12.65;5.28;;;;;;;;;;6178647;23;20031;-70
2023/02/06 07:29:04;;;;;;;13.43;5.70;;;;;;;;;;6179294;23;20021;-56
2023/02/06 07:31:31;;;;;;;13.02;5.60;;;;;;;;;;6178726;23;20103;-50
2023/02/06 07:34:06;;;;;;;11.50;5.38;;;;;;;;;;6177999;23;20079;-50
2023/02/06 07:36:33;;;;;;;13.18;5.40;;;;;;;;;;6179394;23;20021;-53
2023/02/06 07:39:01;;;;;;;12.02;5.03;;;;;;;;;;6179147;23;20027;-53
2023/02/06 07:41:35;;;;;;;14.27;5.28;;;;;;;;;;6178195;23;20049;-51
2023/02/06 07:44:02;;;;;;;15.95;5.55;;;;;;;;;;6178937;23;20462;-49
2023/02/06 07:46:36;;;;;;;12.52;5.50;;;;;;;;;;6179508;23;20021;-53
2023/02/06 07:49:03;;;;;;;13.07;5.65;;;;;;;;;;6177534;23;20107;-48
2023/02/06 07:51:30;;;;;;;10.35;4.60;;;;;;;;;;6178609;23;20136;-50
2023/02/06 07:54:03;;;;;;;14.25;5.90;;;;;;;;;;6179049;23;20096;-51
2023/02/06 07:56:31;;;;;;;13.20;5.03;;;;;;;;;;6177127;23;20474;-48
2023/02/06 07:59:11;;;;;;;16.20;5.32;;;;;;;;;;6178203;23;20120;-54
2023/02/06 08:01:38;;;;;;;12.43;5.53;;;;;;;;;;6178067;23;20052;-64
2023/02/06 08:04:13;;;;;;;11.90;4.90;;;;;;;;;;6178191;23;20024;-58
2023/02/06 08:06:41;;;;;;;14.82;5.25;;;;;;;;;;6178909;23;20018;-70
2023/02/06 08:09:17;;;;;;;12.20;5.13;;;;;;;;;;6151397;23;20140;-71
2023/02/06 08:11:51;;;;;;;13.57;5.68;;;;;;;;;;6177972;23;20024;-70
2023/02/06 08:14:18;;;;;;;11.68;5.60;;;;;;;;;;6178978;23;20104;-70
2023/02/06 08:16:51;;;;;;;13.18;6.18;;;;;;;;;;6178848;23;20778;-70
2023/02/06 08:19:19;;;;;;;10.68;5.63;;;;;;;;;;6178153;23;20101;-70
2023/02/06 08:21:52;;;;;;;12.20;5.03;;;;;;;;;;6178852;23;20021;-64
2023/02/06 08:24:20;;;;;;;12.77;5.50;;;;;;;;;;6177633;23;20063;-57
2023/02/06 08:26:47;;;;;;;11.88;5.28;;;;;;;;;;6177497;23;20418;-57
2023/02/06 08:29:21;;;;;;;10.82;5.53;;;;;;;;;;6178539;23;20096;-56
2023/02/06 08:31:48;;;;;;;10.75;5.45;;;;;;;;;;6178721;23;20027;-52
2023/02/06 08:34:21;;;;;;;9.10;4.70;;;;;;;;;;6178098;23;20028;-52
2023/02/06 08:36:48;;;;;;;11.20;5.07;;;;;;;;;;6178483;23;20097;-54
2023/02/06 08:39:23;;;;;;;12.38;5.05;;;;;;;;;;6178733;23;20081;-55
2023/02/06 08:41:50;;;;;;;12.20;4.80;;;;;;;;;;6177659;23;20099;-70
2023/02/06 08:44:24;;;;;;;11.70;5.32;;;;;;;;;;6178343;23;20048;-63
2023/02/06 08:46:51;;;;;;;10.88;4.78;;;;;;;;;;6178898;23;20025;-63
2023/02/06 08:49:35;;;;;;;11.85;4.65;;;;;;;;;;6178533;23;20749;-64
2023/02/06 08:52:08;;;;;;;11.43;4.40;;;;;;;;;;6179100;23;20017;-63
2023/02/06 08:54:35;;;;;;;10.77;4.93;;;;;;;;;;6177374;23;20624;-64
2023/02/06 08:57:11;;;;;;;6.97;4.03;;;;;;;;;;6177732;23;20096;-63
2023/02/06 08:59:45;;;;;;;10.60;4.55;;;;;;;;;;6177261;23;20550;-63
2023/02/06 09:02:20;;;;;;;9.20;4.32;;;;;;;;;;6177655;23;20039;-50
2023/02/06 09:04:47;;;;;;;7.35;3.70;;;;;;;;;;6178147;23;20029;-51
2023/02/06 09:07:14;;;;;;;5.82;3.70;;;;;;;;;;6178280;23;20399;-51
2023/02/06 09:09:48;;;;;;;7.57;3.70;;;;;;;;;;6177444;23;20021;-50
2023/02/06 09:12:16;;;;;;;9.50;4.00;;;;;;;;;;6151788;23;20131;-55
2023/02/06 09:14:50;;;;;;;6.70;3.85;;;;;;;;;;6177512;23;20387;-51
2023/02/06 09:17:17;;;;;;;11.05;3.70;;;;;;;;;;6177312;23;20095;-54
2023/02/06 09:19:51;;;;;;;10.65;4.22;;;;;;;;;;6179242;23;20021;-70
2023/02/06 09:22:18;;;;;;;9.45;3.97;;;;;;;;;;6178245;23;20027;-69
2023/02/06 09:24:45;;;;;;;9.95;4.38;;;;;;;;;;6177663;23;20059;-70
2023/02/06 09:27:19;;;;;;;9.40;3.65;;;;;;;;;;6177769;23;20025;-69
2023/02/06 09:29:47;;;;;;;7.35;4.35;;;;;;;;;;6177089;23;20108;-69
2023/02/06 09:32:21;;;;;;;9.35;4.07;;;;;;;;;;6175512;23;20025;-69
2023/02/06 09:34:48;;;;;;;7.95;3.97;;;;;;;;;;6178386;23;20475;-67
2023/02/06 09:37:15;;;;;;;11.48;3.85;;;;;;;;;;6177110;23;20407;-68
2023/02/06 09:39:49;;;;;;;8.00;3.92;;;;;;;;;;6177692;23;20132;-63
2023/02/06 09:42:19;;;;;;;8.50;4.07;;;;;;;;;;6177951;23;20769;-57
2023/02/06 09:45:00;;;;;;;8.23;3.50;;;;;;;;;;6177718;23;20027;-51
2023/02/06 09:47:32;;;;;;;8.10;3.65;;;;;;;;;;6176934;23;20104;-55
2023/02/06 09:50:16;;;;;;;10.00;3.63;;;;;;;;;;6178818;23;20140;-55
2023/02/06 09:52:52;;;;;;;7.80;3.30;;;;;;;;;;6176599;23;20029;-53
2023/02/06 09:55:40;;;;;;;6.47;3.50;;;;;;;;;;6177299;23;20056;-62
2023/02/06 09:58:39;;;;;;;7.60;3.10;;;;;;;;;;6177665;23;20025;-53
2023/02/06 10:01:29;;;;;;;11.55;3.50;;;;;;;;;;6177388;23;20025;-53
2023/02/06 10:04:20;;;;;;;9.57;3.35;;;;;;;;;;6178242;23;20020;-51
2023/02/06 10:06:54;;;;;;;8.30;3.35;;;;;;;;;;6178009;23;20035;-52
2023/02/06 10:09:39;;;;;;;5.05;3.08;;;;;;;;;;6176826;23;20103;-57
2023/02/06 10:12:12;;;;;;;7.32;3.08;;;;;;;;;;6177474;23;20494;-56
2023/02/06 10:15:00;;;;;;;8.85;3.03;;;;;;;;;;6175807;23;20033;-57
2023/02/06 10:17:35;;;;;;;7.13;3.00;;;;;;;;;;6179566;23;20021;-57
2023/02/06 10:20:16;;;;;;;10.20;3.30;;;;;;;;;;6180197;23;20045;-59
2023/02/06 10:22:47;;;;;;;7.45;3.60;;;;;;;;;;6179300;23;20481;-55
2023/02/06 10:25:23;;;;;;;9.07;3.97;;;;;;;;;;6178527;23;20485;-56
2023/02/06 10:27:54;;;;;;;7.75;3.90;;;;;;;;;;6179689;23;20056;-53
2023/02/06 10:30:46;;;;;;;7.10;3.13;;;;;;;;;;6154307;23;20017;-60
2023/02/06 10:33:52;;;;;;;15.43;3.97;;;;;;;;;;6179193;23;20024;-56
2023/02/06 10:36:34;;;;;;;11.50;4.28;;;;;;;;;;6116253;23;20026;-57
2023/02/06 10:39:09;;;;;;;11.35;4.38;;;;;;;;;;6117371;23;20054;-56
2023/02/06 10:41:54;;;;;;;11.13;4.65;;;;;;;;;;6158938;23;20056;-58
2023/02/06 10:44:43;;;;;;;11.02;4.90;;;;;;;;;;6180948;23;20128;-54
2023/02/06 10:47:23;;;;;;;11.00;4.97;;;;;;;;;;6179527;23;20091;-55
2023/02/06 10:49:54;;;;;;;8.43;5.57;;;;;;;;;;6153803;23;20029;-53
2023/02/06 10:52:30;;;;;;;14.25;6.32;;;;;;;;;;6178266;23;20099;-56
2023/02/06 10:54:59;;;;;;;9.90;5.43;;;;;;;;;;6179122;23;20112;-63
2023/02/06 10:57:33;;;;;;;14.50;6.15;;;;;;;;;;6178909;23;20107;-60
2023/02/06 11:00:07;;;;;;;14.00;6.47;;;;;;;;;;6177663;23;20066;-59
2023/02/06 11:02:54;;;;;;;15.77;7.55;;;;;;;;;;6178157;23;20088;-61
2023/02/06 11:05:33;;;;;;;22.10;10.27;;;;;;;;;;6178920;23;20047;-59
2023/02/06 11:08:07;;;;;;;19.48;9.15;;;;;;;;;;6179774;23;20025;-58
2023/02/06 11:10:34;;;;;;;24.30;10.85;;;;;;;;;;6178461;23;20100;-60
2023/02/06 11:13:04;;;;;;;21.60;9.93;;;;;;;;;;6179228;23;20124;-56
2023/02/06 11:15:46;;;;;;;17.48;9.05;;;;;;;;;;6177495;23;20029;-70
2023/02/06 11:18:17;;;;;;;20.88;9.75;;;;;;;;;;6179979;23;20017;-70
2023/02/06 11:20:51;;;;;;;17.73;8.52;;;;;;;;;;6178632;23;20482;-70
2023/02/06 11:23:23;;;;;;;15.90;7.82;;;;;;;;;;6179045;23;20025;-71
2023/02/06 11:26:04;;;;;;;31.77;8.43;;;;;;;;;;6179528;23;20021;-70
2023/02/06 11:28:33;;;;;;;17.17;6.97;;;;;;;;;;6178434;23;20422;-71
2023/02/06 11:31:08;;;;;;;14.73;6.88;;;;;;;;;;6178584;23;20120;-52
2023/02/06 11:33:41;;;;;;;20.00;7.28;;;;;;;;;;6177930;23;20021;-54
2023/02/06 11:36:35;;;;;;;26.67;7.18;;;;;;;;;;6179171;23;20021;-51
2023/02/06 11:39:04;;;;;;;56.13;8.73;;;;;;;;;;6178145;23;20100;-53
2023/02/06 11:41:37;;;;;;;41.40;8.45;;;;;;;;;;6178811;23;20025;-56
2023/02/06 11:44:05;;;;;;;27.67;8.02;;;;;;;;;;6178934;23;20105;-57
2023/02/06 11:46:39;;;;;;;40.67;8.60;;;;;;;;;;6178170;23;20092;-51
2023/02/06 11:49:23;;;;;;;27.00;8.20;;;;;;;;;;6178277;23;20056;-57
2023/02/06 11:51:59;;;;;;;33.17;9.23;;;;;;;;;;6178873;23;20099;-65
2023/02/06 11:54:28;;;;;;;36.17;9.98;;;;;;;;;;6177749;23;20021;-71
2023/02/06 11:57:03;;;;;;;26.48;8.73;;;;;;;;;;6178564;23;20471;-71
2023/02/06 11:59:48;;;;;;;27.80;10.40;;;;;;;;;;6177758;23;20065;-71
2023/02/06 12:02:34;;;;;;;45.58;9.82;;;;;;;;;;6179654;23;20096;-70
2023/02/06 12:05:04;;;;;;;23.13;9.57;;;;;;;;;;6178586;23;20028;-70
2023/02/06 12:07:59;;;;;;;29.20;10.13;;;;;;;;;;6177087;23;20036;-71
2023/02/06 12:10:28;;;;;;;28.17;9.60;;;;;;;;;;6178340;23;20197;-63
2023/02/06 12:13:06;;;;;;;19.20;9.77;;;;;;;;;;6178945;23;20023;-71
2023/02/06 12:15:44;;;;;;;20.02;8.60;;;;;;;;;;6177695;23;20056;-71
2023/02/06 12:18:28;;;;;;;14.93;7.30;;;;;;;;;;6179516;23;20080;-71
2023/02/06 12:20:58;;;;;;;12.07;4.90;;;;;;;;;;6178535;23;20053;-71
2023/02/06 12:23:43;;;;;;;14.95;7.93;;;;;;;;;;6177994;23;20104;-71
2023/02/06 12:26:12;;;;;;;14.05;7.25;;;;;;;;;;6179107;23;20087;-71
2023/02/06 12:28:56;;;;;;;11.65;6.95;;;;;;;;;;6177517;23;20583;-70
2023/02/06 12:31:31;;;;;;;10.82;7.05;;;;;;;;;;6179012;23;20102;-68
2023/02/06 12:34:15;;;;;;;16.40;7.13;;;;;;;;;;6178507;23;20099;-65
2023/02/06 12:37:12;;;;;;;35.30;8.02;;;;;;;;;;6177248;23;20104;-64
2023/02/06 12:39:53;;;;;;;26.20;7.93;;;;;;;;;;6178107;23;20025;-66
2023/02/06 12:42:32;;;;;;;19.52;7.78;;;;;;;;;;6177603;23;20844;-66
2023/02/06 12:45:12;;;;;;;46.78;8.30;;;;;;;;;;6178338;23;20128;-65
2023/02/06 12:47:45;;;;;;;53.97;9.32;;;;;;;;;;6179013;23;20358;-58
2023/02/06 12:50:22;;;;;;;26.40;9.55;;;;;;;;;;6178344;23;20441;-63
2023/02/06 12:52:55;;;;;;;21.13;9.15;;;;;;;;;;6178046;23;20103;-65
